Time;durP1;ratioP1;P1;durP2;ratioP2;P2;SDS_P1;SDS_P2;PMS_P1;PMS_P2;Temp;Humidity;BMP_temperature;BMP_pressure;BME280_temperature;BME280_humidity;BME280_pressure;Samples;Min_cycle;Max_cycle;Signal;HPM_P1;HPM_P2
2021/05/28 00:02:23;;;;;;;16.70;6.15;;;8.60;99.90;;;;;;5069157;28;20483;-80
2021/05/28 00:04:48;;;;;;;11.57;5.03;;;8.50;99.90;;;;;;5052832;28;20498;-81
2021/05/28 00:07:15;;;;;;;17.00;6.55;;;8.60;99.90;;;;;;5085016;28;20090;-81
2021/05/28 00:09:41;;;;;;;13.38;6.05;;;8.50;99.90;;;;;;5046161;28;20530;-81
2021/05/28 00:12:07;;;;;;;16.52;7.03;;;8.50;99.90;;;;;;5065374;28;20043;-81
2021/05/28 00:14:34;;;;;;;16.15;6.15;;;8.40;99.90;;;;;;5069658;28;20040;-81
2021/05/28 00:16:59;;;;;;;19.50;5.65;;;8.40;99.90;;;;;;5044245;28;20094;-81
2021/05/28 00:19:25;;;;;;;26.48;6.70;;;8.40;99.90;;;;;;5084240;28;20503;-81
2021/05/28 00:21:51;;;;;;;20.05;6.15;;;8.30;99.90;;;;;;5054510;28;20437;-81
2021/05/28 00:24:19;;;;;;;20.30;7.20;;;8.40;99.90;;;;;;5057935;28;20140;-81
2021/05/28 00:26:45;;;;;;;24.70;7.97;;;8.40;99.90;;;;;;5090988;28;20047;-81
2021/05/28 00:29:11;;;;;;;23.55;8.10;;;8.40;99.90;;;;;;5079423;28;20119;-81
2021/05/28 00:31:37;;;;;;;24.15;8.73;;;8.40;99.90;;;;;;5056853;28;20055;-81
2021/05/28 00:34:03;;;;;;;27.75;9.70;;;8.40;99.90;;;;;;5089189;28;20032;-80
2021/05/28 00:36:29;;;;;;;27.70;9.02;;;8.40;99.90;;;;;;5084431;28;20154;-80
2021/05/28 00:38:55;;;;;;;31.42;8.77;;;8.40;99.90;;;;;;5089063;28;20071;-81
2021/05/28 00:41:21;;;;;;;22.83;9.00;;;8.40;99.90;;;;;;5067478;28;20490;-82
2021/05/28 00:43:47;;;;;;;27.35;8.55;;;8.40;99.90;;;;;;5077442;28;20463;-81
2021/05/28 00:46:13;;;;;;;24.02;8.55;;;8.40;99.90;;;;;;5074004;28;20552;-81
2021/05/28 00:48:39;;;;;;;27.95;8.70;;;8.40;99.90;;;;;;5089518;28;20031;-80
2021/05/28 00:51:06;;;;;;;17.55;7.50;;;8.50;99.90;;;;;;5082504;28;20036;-81
2021/05/28 00:53:32;;;;;;;29.50;10.50;;;8.50;99.90;;;;;;5073581;28;20101;-80
2021/05/28 00:55:59;;;;;;;29.13;10.98;;;8.50;99.90;;;;;;5065556;28;20048;-81
2021/05/28 00:58:25;;;;;;;31.73;8.75;;;8.50;99.90;;;;;;5059668;28;20051;-81
2021/05/28 01:00:52;;;;;;;32.95;11.88;;;8.50;99.90;;;;;;5078859;28;20036;-80
2021/05/28 01:03:19;;;;;;;35.70;14.20;;;8.50;99.90;;;;;;5082389;28;20487;-80
2021/05/28 01:05:45;;;;;;;31.15;12.80;;;8.60;99.90;;;;;;5073352;28;20331;-81
2021/05/28 01:08:11;;;;;;;37.22;14.80;;;8.60;99.90;;;;;;5067721;28;20119;-80
2021/05/28 01:10:37;;;;;;;30.38;9.90;;;8.60;99.90;;;;;;5094798;28;20066;-80
2021/05/28 01:13:05;;;;;;;25.02;9.25;;;8.60;99.90;;;;;;5073763;28;20067;-80
2021/05/28 01:15:32;;;;;;;24.40;9.07;;;8.50;99.90;;;;;;5053862;28;20048;-81
2021/05/28 01:17:59;;;;;;;29.27;9.48;;;8.50;99.90;;;;;;5094171;28;20067;-80
2021/05/28 01:20:24;;;;;;;28.50;7.70;;;8.50;99.90;;;;;;5100320;28;20044;-80
2021/05/28 01:22:52;;;;;;;28.00;8.85;;;8.50;99.90;;;;;;5085666;28;20059;-80
2021/05/28 01:25:22;;;;;;;27.50;8.77;;;8.50;99.90;;;;;;5074003;28;20466;-81
2021/05/28 01:27:48;;;;;;;28.73;9.60;;;8.50;99.90;;;;;;5070913;28;20070;-80
2021/05/28 01:30:15;;;;;;;27.35;8.75;;;8.50;99.90;;;;;;5057518;28;20040;-80
2021/05/28 01:32:45;;;;;;;27.42;9.57;;;8.50;99.90;;;;;;5073966;28;20032;-80
2021/05/28 01:35:13;;;;;;;27.02;9.05;;;8.40;99.90;;;;;;5064957;28;20050;-80
2021/05/28 01:37:40;;;;;;;32.28;11.63;;;8.50;99.90;;;;;;5076233;28;20475;-80
2021/05/28 01:40:07;;;;;;;40.45;11.52;;;8.50;99.90;;;;;;5077882;28;20044;-81
2021/05/28 01:42:33;;;;;;;41.70;14.52;;;8.60;99.90;;;;;;5093075;28;20040;-81
2021/05/28 01:45:05;;;;;;;27.17;9.83;;;8.60;99.90;;;;;;5093788;28;20036;-79
2021/05/28 01:47:31;;;;;;;27.73;9.63;;;8.50;99.90;;;;;;5093264;28;20040;-81
2021/05/28 01:50:00;;;;;;;26.00;10.32;;;8.50;99.90;;;;;;5090092;28;20383;-80
2021/05/28 01:52:26;;;;;;;34.40;11.13;;;8.50;99.90;;;;;;5066310;28;20126;-80
2021/05/28 01:54:52;;;;;;;24.13;8.15;;;8.50;99.90;;;;;;5046804;28;20043;-79
2021/05/28 01:57:19;;;;;;;25.98;7.72;;;8.50;99.90;;;;;;5073287;28;20131;-79
2021/05/28 01:59:45;;;;;;;20.85;8.50;;;8.50;99.90;;;;;;5066470;28;20054;-80
2021/05/28 02:02:15;;;;;;;24.15;7.38;;;8.50;99.90;;;;;;5062984;28;20044;-79
2021/05/28 02:04:41;;;;;;;26.60;9.63;;;8.50;99.90;;;;;;5072048;28;20048;-80
2021/05/28 02:07:07;;;;;;;26.67;10.25;;;8.50;99.90;;;;;;5072371;28;20032;-80
2021/05/28 02:09:33;;;;;;;23.73;8.18;;;8.50;99.90;;;;;;5090653;28;20398;-81
2021/05/28 02:11:59;;;;;;;28.25;9.05;;;8.50;99.90;;;;;;5048851;28;20048;-80
2021/05/28 02:14:27;;;;;;;28.35;10.52;;;8.60;99.90;;;;;;5077147;28;20098;-80
2021/05/28 02:16:53;;;;;;;27.90;10.02;;;8.50;99.90;;;;;;5099544;28;20476;-80
2021/05/28 02:19:20;;;;;;;21.05;8.05;;;8.60;99.90;;;;;;5053537;28;20048;-80
2021/05/28 02:21:46;;;;;;;32.33;9.75;;;8.50;99.90;;;;;;5071908;28;20044;-80
2021/05/28 02:24:14;;;;;;;40.90;12.25;;;8.50;99.90;;;;;;5072567;28;20036;-80
2021/05/28 02:26:44;;;;;;;24.17;8.30;;;8.50;99.90;;;;;;5090041;28;20118;-81
2021/05/28 02:29:10;;;;;;;31.58;9.90;;;8.60;99.90;;;;;;5073084;28;20043;-81
2021/05/28 02:31:37;;;;;;;33.50;11.35;;;8.50;99.90;;;;;;5075943;28;20127;-80
2021/05/28 02:34:04;;;;;;;38.85;11.32;;;8.60;99.90;;;;;;5072502;28;20040;-81
2021/05/28 02:36:33;;;;;;;25.77;9.90;;;8.60;99.90;;;;;;5055418;28;20144;-81
2021/05/28 02:38:59;;;;;;;30.73;10.95;;;8.60;99.90;;;;;;5071967;28;20036;-81
2021/05/28 02:41:26;;;;;;;15.45;7.85;;;8.60;99.90;;;;;;5071825;28;20406;-81
2021/05/28 02:43:54;;;;;;;19.05;8.80;;;8.60;99.90;;;;;;5071967;28;20123;-81
2021/05/28 02:46:20;;;;;;;22.90;9.27;;;8.60;99.90;;;;;;5053118;28;20447;-80
2021/05/28 02:48:46;;;;;;;23.20;8.68;;;8.60;99.90;;;;;;5038369;28;20044;-80
2021/05/28 02:51:12;;;;;;;29.85;13.30;;;8.70;99.90;;;;;;5072233;28;20054;-80
2021/05/28 02:53:38;;;;;;;24.35;8.52;;;8.70;99.90;;;;;;5076659;28;20100;-80
2021/05/28 02:56:05;;;;;;;37.53;11.43;;;8.70;99.90;;;;;;5071796;28;20065;-79
2021/05/28 02:58:31;;;;;;;32.50;12.93;;;8.70;99.90;;;;;;5080189;28;20052;-79
2021/05/28 03:00:57;;;;;;;20.95;9.52;;;8.70;99.90;;;;;;5070664;28;20093;-79
2021/05/28 03:03:23;;;;;;;18.42;6.53;;;8.70;99.90;;;;;;5073841;28;20049;-79
2021/05/28 03:05:50;;;;;;;17.67;5.53;;;8.70;99.90;;;;;;5069897;28;20143;-80
2021/05/28 03:08:21;;;;;;;13.15;4.07;;;8.70;99.90;;;;;;5071845;28;20036;-79
2021/05/28 03:10:48;;;;;;;20.02;5.18;;;8.70;99.90;;;;;;5067720;28;20045;-80
2021/05/28 03:13:14;;;;;;;11.23;3.53;;;8.80;99.90;;;;;;5067821;28;20079;-81
2021/05/28 03:15:40;;;;;;;16.02;4.53;;;8.80;99.90;;;;;;5067377;28;20404;-80
2021/05/28 03:18:13;;;;;;;17.80;5.43;;;8.80;99.90;;;;;;5067661;28;20455;-80
2021/05/28 03:20:46;;;;;;;15.50;5.82;;;8.80;99.90;;;;;;5063240;28;20052;-80
2021/05/28 03:23:12;;;;;;;16.35;5.95;;;8.80;99.90;;;;;;5075000;28;20479;-80
2021/05/28 03:25:38;;;;;;;16.92;5.35;;;8.80;99.90;;;;;;5058053;28;20048;-81
2021/05/28 03:28:05;;;;;;;17.55;5.38;;;8.80;99.90;;;;;;5051339;28;20048;-80
2021/05/28 03:30:31;;;;;;;21.27;6.55;;;8.80;99.90;;;;;;5067726;28;20484;-80
2021/05/28 03:32:56;;;;;;;21.20;6.00;;;8.80;99.90;;;;;;5066404;28;20055;-80
2021/05/28 03:35:22;;;;;;;19.83;6.55;;;8.80;99.90;;;;;;5069322;28;20044;-81
2021/05/28 03:37:48;;;;;;;25.52;7.22;;;8.80;99.90;;;;;;5046003;28;20126;-79
2021/05/28 03:40:14;;;;;;;26.50;6.15;;;8.70;99.90;;;;;;5038312;28;20451;-82
2021/05/28 03:42:41;;;;;;;25.20;6.80;;;8.80;99.90;;;;;;5079102;28;20047;-79
2021/05/28 03:45:08;;;;;;;17.20;5.82;;;8.70;99.90;;;;;;5077940;28;20033;-80
2021/05/28 03:47:34;;;;;;;18.95;6.00;;;8.70;99.90;;;;;;5062386;28;20109;-80
2021/05/28 03:50:00;;;;;;;15.95;5.50;;;8.70;99.90;;;;;;5070848;28;20040;-80
2021/05/28 03:52:26;;;;;;;22.83;6.55;;;8.60;99.90;;;;;;5043792;28;20040;-80
2021/05/28 03:54:52;;;;;;;15.32;4.80;;;8.60;99.90;;;;;;5071482;28;20047;-79
2021/05/28 03:57:30;;;;;;;13.35;4.53;;;8.50;99.90;;;;;;5057319;28;20475;-80
2021/05/28 03:59:56;;;;;;;13.38;4.50;;;8.40;99.90;;;;;;5064034;28;20154;-80
2021/05/28 04:02:21;;;;;;;25.08;5.18;;;8.50;99.90;;;;;;5060847;28;20464;-79
2021/05/28 04:04:48;;;;;;;22.95;5.22;;;8.50;99.90;;;;;;5055440;28;20040;-79
2021/05/28 04:07:14;;;;;;;23.33;6.63;;;8.50;99.90;;;;;;5070612;28;20476;-79
2021/05/28 04:09:40;;;;;;;31.13;7.80;;;8.40;99.90;;;;;;5067388;28;20074;-82
2021/05/28 04:12:07;;;;;;;27.15;8.60;;;8.40;99.90;;;;;;5071034;28;20044;-80
2021/05/28 04:14:35;;;;;;;23.42;7.10;;;8.30;99.90;;;;;;5070993;28;20063;-81
2021/05/28 04:17:01;;;;;;;26.30;8.60;;;8.30;99.90;;;;;;5070476;28;20880;-80
2021/05/28 04:19:27;;;;;;;28.42;10.00;;;8.30;99.90;;;;;;5053596;28;20036;-80
2021/05/28 04:21:53;;;;;;;37.58;10.40;;;8.20;99.90;;;;;;5050049;28;20093;-80
2021/05/28 04:24:19;;;;;;;21.55;8.18;;;8.20;99.90;;;;;;5049112;28;20036;-80
2021/05/28 04:26:45;;;;;;;31.08;9.65;;;8.30;99.90;;;;;;5057490;28;20048;-80
2021/05/28 04:29:12;;;;;;;23.17;7.25;;;8.30;99.90;;;;;;5074710;28;20088;-80
2021/05/28 04:31:37;;;;;;;25.85;6.90;;;8.40;99.90;;;;;;5061076;28;20044;-80
2021/05/28 04:34:03;;;;;;;24.15;7.22;;;8.40;99.90;;;;;;5056958;28;20561;-80
2021/05/28 04:36:30;;;;;;;22.13;8.20;;;8.50;99.90;;;;;;5074607;28;20043;-81
2021/05/28 04:38:57;;;;;;;21.55;6.72;;;8.60;99.90;;;;;;5074052;28;20052;-81
2021/05/28 04:41:23;;;;;;;32.45;8.02;;;8.70;99.90;;;;;;5041206;28;20064;-80
2021/05/28 04:43:50;;;;;;;22.55;6.80;;;8.70;99.90;;;;;;5049089;28;20122;-81
2021/05/28 04:46:16;;;;;;;21.17;8.55;;;8.80;99.90;;;;;;5073776;28;20131;-81
2021/05/28 04:48:42;;;;;;;28.10;8.95;;;8.90;99.90;;;;;;5061121;28;20067;-82
2021/05/28 04:51:08;;;;;;;26.35;8.77;;;8.90;99.90;;;;;;5074093;28;20544;-81
2021/05/28 04:53:34;;;;;;;21.98;7.35;;;8.90;99.90;;;;;;5072086;28;20067;-81
2021/05/28 04:56:00;;;;;;;31.92;8.50;;;8.90;99.90;;;;;;5040618;28;20048;-81
2021/05/28 04:58:26;;;;;;;29.85;8.85;;;8.90;99.90;;;;;;5057903;28;20053;-82
2021/05/28 05:00:52;;;;;;;24.20;8.73;;;9.00;99.90;;;;;;5070858;28;20057;-81
2021/05/28 05:03:18;;;;;;;20.17;7.95;;;9.00;99.90;;;;;;5076113;28;20510;-82
2021/05/28 05:05:44;;;;;;;23.30;8.18;;;9.00;99.90;;;;;;5057132;28;20412;-83
2021/05/28 05:08:10;;;;;;;24.42;8.48;;;9.00;99.90;;;;;;5053900;28;20051;-82
2021/05/28 05:10:35;;;;;;;18.08;7.82;;;9.10;99.90;;;;;;5076806;28;20052;-81
2021/05/28 05:13:10;;;;;;;19.33;8.25;;;9.10;99.90;;;;;;5067734;28;20052;-81
2021/05/28 05:15:37;;;;;;;20.05;8.50;;;9.20;99.90;;;;;;5082390;28;20472;-81
2021/05/28 05:18:07;;;;;;;25.20;8.23;;;9.20;99.90;;;;;;5084565;28;20044;-80
2021/05/28 05:20:34;;;;;;;31.83;8.77;;;9.30;99.90;;;;;;5081642;28;20488;-80
2021/05/28 05:23:00;;;;;;;23.10;9.02;;;9.30;99.90;;;;;;5079508;28;20506;-80
2021/05/28 05:25:27;;;;;;;22.58;8.63;;;9.40;99.90;;;;;;5091794;28;20093;-80
2021/05/28 05:27:53;;;;;;;30.67;9.30;;;9.50;99.90;;;;;;5069167;28;20867;-80
2021/05/28 05:30:20;;;;;;;21.77;9.05;;;9.60;99.90;;;;;;5068106;28;20407;-80
2021/05/28 05:32:46;;;;;;;26.08;8.48;;;9.80;99.90;;;;;;5080627;28;20055;-81
2021/05/28 05:35:14;;;;;;;22.50;8.20;;;9.90;99.90;;;;;;5082089;28;20047;-80
2021/05/28 05:37:42;;;;;;;20.88;7.68;;;10.00;99.90;;;;;;5072005;28;20048;-80
2021/05/28 05:40:10;;;;;;;27.05;8.65;;;10.10;99.90;;;;;;5057938;28;20059;-80
2021/05/28 05:42:39;;;;;;;27.27;9.75;;;10.20;99.90;;;;;;5064850;28;20036;-80
2021/05/28 05:45:10;;;;;;;20.35;7.68;;;10.30;99.90;;;;;;5084770;28;20191;-81
2021/05/28 05:47:36;;;;;;;20.83;9.27;;;10.40;99.90;;;;;;5055386;28;20056;-80
2021/05/28 05:50:03;;;;;;;21.15;7.35;;;10.40;99.90;;;;;;5088929;28;20040;-81
2021/05/28 05:52:29;;;;;;;23.70;7.95;;;10.50;99.90;;;;;;5091271;28;20472;-80
2021/05/28 05:54:56;;;;;;;19.52;7.85;;;10.50;99.90;;;;;;5087467;28;20052;-80
2021/05/28 05:57:22;;;;;;;22.00;8.20;;;10.60;99.90;;;;;;5057487;28;20500;-80
2021/05/28 05:59:48;;;;;;;28.90;7.47;;;10.60;99.90;;;;;;5059328;28;20126;-81
2021/05/28 06:02:13;;;;;;;19.15;7.30;;;10.60;99.90;;;;;;5068961;28;20548;-82
2021/05/28 06:04:40;;;;;;;21.92;7.30;;;10.60;99.90;;;;;;5043808;28;20040;-79
2021/05/28 06:07:05;;;;;;;28.33;7.60;;;10.60;99.90;;;;;;5040512;28;20080;-81
2021/05/28 06:09:31;;;;;;;23.55;7.95;;;10.60;99.90;;;;;;5085047;28;20472;-80
2021/05/28 06:11:58;;;;;;;23.58;6.57;;;10.70;99.90;;;;;;5071780;28;20113;-80
2021/05/28 06:14:25;;;;;;;23.67;7.00;;;10.60;99.90;;;;;;5073027;28;20043;-80
2021/05/28 06:16:51;;;;;;;20.00;7.93;;;10.60;99.90;;;;;;5077943;28;20041;-80
2021/05/28 06:19:17;;;;;;;19.45;8.00;;;10.70;99.90;;;;;;5052725;28;20102;-81
2021/05/28 06:21:43;;;;;;;25.67;8.10;;;10.70;99.90;;;;;;5069450;28;20048;-80
2021/05/28 06:24:09;;;;;;;23.20;6.93;;;10.70;99.90;;;;;;5051577;28;20186;-80
2021/05/28 06:26:35;;;;;;;16.85;6.18;;;10.80;99.90;;;;;;5059380;28;20046;-80
2021/05/28 06:29:02;;;;;;;20.45;6.72;;;10.80;99.90;;;;;;5076801;28;20106;-80
2021/05/28 06:31:32;;;;;;;19.30;7.53;;;10.80;99.90;;;;;;5051757;28;20055;-80
2021/05/28 06:33:58;;;;;;;14.00;6.43;;;10.90;99.90;;;;;;5070242;28;20098;-80
2021/05/28 06:36:24;;;;;;;29.65;9.43;;;11.00;99.90;;;;;;5087856;28;20044;-81
2021/05/28 06:38:50;;;;;;;18.40;7.45;;;11.10;99.90;;;;;;5080513;28;20109;-82
2021/05/28 06:41:16;;;;;;;19.25;6.75;;;11.10;99.90;;;;;;5068106;28;20041;-80
2021/05/28 06:43:41;;;;;;;17.48;7.07;;;11.30;99.90;;;;;;5039691;28;20396;-81
2021/05/28 06:46:09;;;;;;;28.27;8.73;;;11.40;99.90;;;;;;5067707;28;20175;-80
2021/05/28 06:48:37;;;;;;;20.05;4.85;;;11.60;99.90;;;;;;5062111;28;20036;-80
2021/05/28 06:51:03;;;;;;;10.07;4.15;;;11.60;99.90;;;;;;5068950;28;20052;-80
2021/05/28 06:53:30;;;;;;;14.73;4.38;;;11.60;99.90;;;;;;5049894;28;20076;-80
2021/05/28 06:55:56;;;;;;;17.73;4.70;;;11.60;99.90;;;;;;5061574;28;20520;-80
2021/05/28 06:58:22;;;;;;;15.32;4.18;;;11.60;99.90;;;;;;5065468;28;20051;-80
2021/05/28 07:00:48;;;;;;;14.57;4.10;;;11.70;99.90;;;;;;5095156;28;20046;-80
2021/05/28 07:03:14;;;;;;;13.88;3.72;;;11.90;99.90;;;;;;5076431;28;20051;-80
2021/05/28 07:05:40;;;;;;;18.73;3.55;;;11.80;99.90;;;;;;5082856;28;20399;-80
2021/05/28 07:08:07;;;;;;;14.05;3.38;;;11.90;99.90;;;;;;5090711;28;20047;-81
2021/05/28 07:10:34;;;;;;;13.45;3.53;;;11.90;99.90;;;;;;5078142;28;20084;-80
2021/05/28 07:13:06;;;;;;;13.48;2.78;;;12.20;99.90;;;;;;5058880;28;20052;-81
2021/05/28 07:15:31;;;;;;;11.30;2.63;;;12.30;99.90;;;;;;5047465;28;20067;-80
2021/05/28 07:17:57;;;;;;;8.82;2.55;;;12.30;99.90;;;;;;5090162;28;20471;-83
2021/05/28 07:20:23;;;;;;;9.45;2.22;;;12.20;99.90;;;;;;5090701;28;20040;-81
2021/05/28 07:22:50;;;;;;;7.05;2.95;;;12.30;99.90;;;;;;5061845;28;20470;-82
2021/05/28 07:25:16;;;;;;;6.25;2.40;;;12.20;99.90;;;;;;5087560;28;20040;-80
2021/05/28 07:27:58;;;;;;;5.65;2.33;;;12.30;99.90;;;;;;5031172;28;20603;-83
2021/05/28 07:30:24;;;;;;;11.77;2.67;;;12.30;99.90;;;;;;4996974;28;20057;-81
2021/05/28 07:32:50;;;;;;;9.63;2.53;;;12.30;99.90;;;;;;5032823;28;20072;-82
2021/05/28 07:35:16;;;;;;;9.05;2.42;;;12.30;99.90;;;;;;5029169;28;20075;-82
2021/05/28 07:37:42;;;;;;;7.32;2.20;;;12.30;99.90;;;;;;5012361;28;20080;-82
2021/05/28 07:40:10;;;;;;;7.85;2.22;;;12.30;99.90;;;;;;5013052;28;20048;-81
2021/05/28 07:42:36;;;;;;;11.18;2.42;;;12.30;99.90;;;;;;5023980;28;20068;-82
2021/05/28 07:45:03;;;;;;;8.25;2.70;;;12.30;99.90;;;;;;5042366;28;20067;-82
2021/05/28 07:47:30;;;;;;;4.63;1.92;;;12.40;99.90;;;;;;5020672;28;20063;-83
2021/05/28 07:49:56;;;;;;;10.90;2.50;;;12.40;99.90;;;;;;5025951;28;20041;-83
2021/05/28 07:52:22;;;;;;;8.13;2.80;;;12.50;99.90;;;;;;5012850;28;20052;-82
2021/05/28 07:54:48;;;;;;;11.85;2.53;;;12.60;99.90;;;;;;5038151;28;20057;-82
2021/05/28 07:57:13;;;;;;;8.52;2.78;;;12.70;99.90;;;;;;5013343;28;20060;-82
2021/05/28 07:59:40;;;;;;;9.88;2.60;;;12.70;99.90;;;;;;5078562;28;20048;-82
2021/05/28 08:02:06;;;;;;;12.98;2.00;;;12.70;99.90;;;;;;5080616;28;20040;-82
2021/05/28 08:04:33;;;;;;;11.15;2.22;;;12.80;99.90;;;;;;5051401;28;20499;-82
2021/05/28 08:06:59;;;;;;;8.45;2.22;;;12.90;99.90;;;;;;5080896;28;20045;-83
2021/05/28 08:09:24;;;;;;;16.58;2.97;;;12.90;99.90;;;;;;5068458;28;20043;-81
2021/05/28 08:11:50;;;;;;;9.43;2.20;;;13.00;99.90;;;;;;5059842;28;20078;-81
2021/05/28 08:14:16;;;;;;;10.90;3.65;;;13.10;99.90;;;;;;5063359;28;20029;-81
2021/05/28 08:16:42;;;;;;;7.18;2.33;;;13.20;99.90;;;;;;5059321;28;20503;-82
2021/05/28 08:19:08;;;;;;;9.10;2.70;;;13.20;99.90;;;;;;5079245;28;20558;-82
2021/05/28 08:21:33;;;;;;;5.85;1.90;;;13.10;99.90;;;;;;5058174;28;20131;-82
2021/05/28 08:23:59;;;;;;;8.68;2.55;;;13.10;99.90;;;;;;5074783;28;20044;-83
2021/05/28 08:26:25;;;;;;;14.48;3.30;;;13.10;99.90;;;;;;5066589;28;20052;-81
2021/05/28 08:28:51;;;;;;;7.43;2.30;;;13.20;99.90;;;;;;5078947;28;20399;-83
2021/05/28 08:31:18;;;;;;;7.68;2.72;;;13.30;99.90;;;;;;5066526;28;20044;-82
2021/05/28 08:33:45;;;;;;;5.30;2.22;;;13.30;99.90;;;;;;5068476;28;20056;-82
2021/05/28 08:36:11;;;;;;;4.97;1.88;;;13.20;99.90;;;;;;5053272;28;20075;-81
2021/05/28 08:38:37;;;;;;;7.97;2.55;;;13.00;99.90;;;;;;5082928;28;20063;-81
2021/05/28 08:41:04;;;;;;;12.75;2.70;;;12.80;99.90;;;;;;5087814;28;20044;-80
2021/05/28 08:43:32;;;;;;;9.75;2.60;;;12.80;99.90;;;;;;5068088;28;20454;-81
2021/05/28 08:46:09;;;;;;;11.02;2.92;;;12.60;99.90;;;;;;5065405;28;20040;-81
2021/05/28 08:48:51;;;;;;;8.10;2.10;;;12.80;99.90;;;;;;5079069;28;20063;-79
2021/05/28 08:51:48;;;;;;;12.73;3.05;;;12.80;99.90;;;;;;5057683;28;20064;-80
2021/05/28 08:54:39;;;;;;;13.43;2.55;;;12.80;99.90;;;;;;5072855;28;20043;-79
2021/05/28 08:57:06;;;;;;;9.02;2.67;;;12.80;99.90;;;;;;5061932;28;20569;-82
2021/05/28 08:59:31;;;;;;;14.13;2.58;;;13.00;99.90;;;;;;5041090;28;20051;-80
2021/05/28 09:01:58;;;;;;;7.80;2.22;;;13.00;99.90;;;;;;5048948;28;20876;-81
2021/05/28 09:04:24;;;;;;;10.88;2.47;;;12.90;99.90;;;;;;5047779;28;20064;-81
2021/05/28 09:06:50;;;;;;;18.25;3.40;;;12.80;99.90;;;;;;5053762;28;20064;-80
2021/05/28 09:09:18;;;;;;;7.38;2.35;;;12.70;99.90;;;;;;5050953;28;20052;-81
2021/05/28 09:11:54;;;;;;;11.50;2.75;;;12.70;99.90;;;;;;5068808;28;20564;-81
2021/05/28 09:14:33;;;;;;;12.48;2.28;;;12.70;99.90;;;;;;5069521;28;20061;-80
2021/05/28 09:16:59;;;;;;;9.20;2.50;;;12.70;99.90;;;;;;5071901;28;20045;-80
2021/05/28 09:19:26;;;;;;;11.48;3.65;;;12.70;99.90;;;;;;5069626;28;20037;-80
2021/05/28 09:22:01;;;;;;;5.25;1.60;;;12.80;99.90;;;;;;5081842;28;20040;-82
2021/05/28 09:24:31;;;;;;;9.15;2.22;;;12.80;99.90;;;;;;5087230;28;20045;-82
2021/05/28 09:27:17;;;;;;;10.77;2.35;;;12.90;99.90;;;;;;5070498;28;20131;-82
2021/05/28 09:30:04;;;;;;;11.45;3.33;;;12.80;99.90;;;;;;5071492;28;20028;-82
2021/05/28 09:32:30;;;;;;;8.73;2.40;;;12.90;99.90;;;;;;5071411;28;20407;-81
2021/05/28 09:34:56;;;;;;;7.53;2.20;;;13.10;99.90;;;;;;5071189;28;20044;-82
2021/05/28 09:37:40;;;;;;;8.73;2.63;;;12.90;99.90;;;;;;5052662;28;20051;-81
2021/05/28 09:40:18;;;;;;;12.70;4.40;;;12.70;99.90;;;;;;5069462;28;20048;-83
2021/05/28 09:42:50;;;;;;;5.93;2.60;;;12.70;99.90;;;;;;5083979;28;20089;-82
2021/05/28 09:45:31;;;;;;;11.48;2.50;;;12.70;99.90;;;;;;5083751;28;20036;-81
2021/05/28 09:47:59;;;;;;;9.07;2.40;;;12.70;99.90;;;;;;5084349;28;20475;-82
2021/05/28 09:50:32;;;;;;;14.95;3.35;;;12.80;99.90;;;;;;5070513;28;20160;-82
2021/05/28 09:53:02;;;;;;;12.52;2.80;;;12.80;99.90;;;;;;5070092;28;20044;-82
2021/05/28 09:55:31;;;;;;;9.38;2.65;;;12.90;99.90;;;;;;5070685;28;20544;-82
2021/05/28 09:57:58;;;;;;;8.57;2.63;;;13.00;99.90;;;;;;5071178;28;20514;-82
2021/05/28 10:00:36;;;;;;;7.28;2.08;;;12.90;99.90;;;;;;5082401;28;20083;-82
2021/05/28 10:03:23;;;;;;;6.63;2.65;;;13.00;99.90;;;;;;5076224;28;20047;-81
2021/05/28 10:05:54;;;;;;;12.43;2.67;;;13.00;99.90;;;;;;5070971;28;20725;-82
2021/05/28 10:08:22;;;;;;;10.82;2.90;;;13.00;99.90;;;;;;5070552;28;20133;-82
2021/05/28 10:10:50;;;;;;;12.30;2.47;;;13.10;99.90;;;;;;5066603;28;20054;-82
2021/05/28 10:13:21;;;;;;;10.05;2.95;;;13.00;99.90;;;;;;5068840;28;20072;-81
2021/05/28 10:15:49;;;;;;;8.18;2.78;;;13.00;99.90;;;;;;5070401;28;20443;-81
2021/05/28 10:18:16;;;;;;;5.60;2.55;;;13.00;99.90;;;;;;5076919;28;20036;-82
2021/05/28 10:20:45;;;;;;;10.00;2.40;;;13.00;99.90;;;;;;5075003;28;20117;-81
2021/05/28 10:23:12;;;;;;;9.20;2.72;;;13.00;99.90;;;;;;5069489;28;20037;-82
2021/05/28 10:25:39;;;;;;;14.25;2.97;;;13.10;99.90;;;;;;5065389;28;20052;-82
2021/05/28 10:28:07;;;;;;;6.25;3.15;;;13.20;99.90;;;;;;5071141;28;20040;-81
2021/05/28 10:30:41;;;;;;;11.43;3.05;;;13.30;99.90;;;;;;5082129;28;20500;-81
2021/05/28 10:33:28;;;;;;;7.30;2.75;;;13.40;99.90;;;;;;5082935;28;20028;-82
2021/05/28 10:36:00;;;;;;;8.93;3.28;;;13.30;99.90;;;;;;5083668;28;20048;-83
2021/05/28 10:38:30;;;;;;;7.50;2.45;;;13.40;99.90;;;;;;5074658;28;20088;-83
2021/05/28 10:41:12;;;;;;;8.48;2.78;;;13.40;99.90;;;;;;5088557;28;20492;-82
2021/05/28 10:44:37;;;;;;;6.60;2.75;;;13.40;99.90;;;;;;5057574;28;20133;-81
2021/05/28 10:47:39;;;;;;;6.88;2.40;;;13.90;99.90;;;;;;5078003;28;20040;-81
2021/05/28 10:50:48;;;;;;;4.50;2.20;;;14.30;99.90;;;;;;5028526;28;20083;-82
2021/05/28 10:53:21;;;;;;;8.25;2.35;;;14.40;99.90;;;;;;5004611;28;20156;-81
2021/05/28 10:56:22;;;;;;;9.00;2.65;;;14.60;99.90;;;;;;5024043;28;20084;-81
2021/05/28 10:59:28;;;;;;;6.60;2.72;;;14.90;99.90;;;;;;5031195;28;20061;-81
2021/05/28 11:02:04;;;;;;;5.30;2.28;;;15.20;99.90;;;;;;5024497;28;20048;-82
2021/05/28 11:04:31;;;;;;;4.40;1.92;;;15.20;99.90;;;;;;5030123;28;20607;-82
2021/05/28 11:07:00;;;;;;;5.95;2.53;;;15.30;99.90;;;;;;5029260;28;20477;-82
2021/05/28 11:09:46;;;;;;;10.70;2.03;;;15.20;99.90;;;;;;5066260;28;20540;-80
2021/05/28 11:12:36;;;;;;;8.85;2.40;;;15.20;99.90;;;;;;5076579;28;21692;-80
2021/05/28 11:15:27;;;;;;;5.47;2.45;;;15.20;99.90;;;;;;5068331;28;20109;-81
2021/05/28 11:18:12;;;;;;;10.50;3.05;;;15.10;99.90;;;;;;5050893;28;20548;-80
2021/05/28 11:21:17;;;;;;;8.68;3.25;;;15.00;99.90;;;;;;5068729;28;20148;-79
2021/05/28 11:23:45;;;;;;;7.78;2.50;;;14.90;99.90;;;;;;5054837;28;20055;-79
2021/05/28 11:26:26;;;;;;;6.68;2.38;;;14.70;99.90;;;;;;5066666;28;20083;-80
2021/05/28 11:29:26;;;;;;;9.18;3.30;;;14.60;99.90;;;;;;5067288;28;20041;-79
2021/05/28 11:31:53;;;;;;;10.35;3.55;;;14.50;99.90;;;;;;5068668;28;20059;-80
2021/05/28 11:34:19;;;;;;;11.02;3.28;;;14.40;99.90;;;;;;5047728;28;20052;-80
2021/05/28 11:36:52;;;;;;;7.78;2.58;;;14.40;99.90;;;;;;5065537;28;20052;-81
2021/05/28 11:39:26;;;;;;;6.47;2.53;;;14.40;99.90;;;;;;5050522;28;20052;-80
2021/05/28 11:42:18;;;;;;;4.25;2.25;;;14.30;99.90;;;;;;5067378;28;20068;-80
2021/05/28 11:44:59;;;;;;;10.05;2.70;;;14.30;99.90;;;;;;5068154;28;20037;-80
2021/05/28 11:47:46;;;;;;;;;;;14.50;99.90;;;;;;5059033;28;20094;-79
2021/05/28 11:50:18;;;;;;;10.35;3.13;;;14.60;99.90;;;;;;5032833;28;19956;-80
2021/05/28 11:53:04;;;;;;;5.93;2.40;;;14.70;99.90;;;;;;5059602;28;20080;-80
2021/05/28 11:56:06;;;;;;;2.97;2.22;;;15.00;99.90;;;;;;5053854;28;20036;-80
2021/05/28 11:58:58;;;;;;;4.43;2.40;;;15.10;99.90;;;;;;5064207;28;20063;-81
2021/05/28 12:01:46;;;;;;;8.27;3.22;;;15.10;99.90;;;;;;5051084;28;20060;-80
2021/05/28 12:04:48;;;;;;;4.35;2.85;;;15.20;99.90;;;;;;5008407;28;20583;-80
2021/05/28 12:07:27;;;;;;;7.45;2.33;;;15.30;99.90;;;;;;5010893;28;20053;-80
2021/05/28 12:10:10;;;;;;;5.28;1.98;;;15.20;99.90;;;;;;5012281;28;20549;-79
2021/05/28 12:13:17;;;;;;;5.78;2.25;;;15.50;99.90;;;;;;5024212;28;20172;-79
2021/05/28 12:16:09;;;;;;;4.00;2.63;;;15.80;99.90;;;;;;4989357;28;20208;-80
2021/05/28 12:18:59;;;;;;;4.75;2.40;;;16.10;99.90;;;;;;5028389;28;20060;-81
2021/05/28 12:21:30;;;;;;;12.10;3.00;;;16.30;99.90;;;;;;5046035;28;20106;-79
2021/05/28 12:23:57;;;;;;;5.85;2.72;;;16.10;99.90;;;;;;5058438;28;20557;-80
2021/05/28 12:26:32;;;;;;;4.22;2.20;;;15.70;99.90;;;;;;5055538;28;20041;-80
2021/05/28 12:29:03;;;;;;;2.53;2.17;;;15.60;99.90;;;;;;5027824;28;20047;-79
2021/05/28 12:31:46;;;;;;;6.68;1.88;;;15.70;99.90;;;;;;5065604;28;20052;-80
2021/05/28 12:34:20;;;;;;;9.73;2.20;;;15.50;99.90;;;;;;5047763;28;20048;-79
2021/05/28 12:36:52;;;;;;;3.73;1.90;;;15.50;99.90;;;;;;5067472;28;20079;-80
2021/05/28 12:39:22;;;;;;;3.40;2.00;;;15.50;99.90;;;;;;5081514;28;20297;-80
2021/05/28 12:42:22;;;;;;;4.10;1.95;;;15.70;99.90;;;;;;5029757;28;20060;-81
2021/05/28 12:45:13;;;;;;;5.30;2.33;;;15.80;99.90;;;;;;5065145;28;20508;-79
2021/05/28 12:48:35;;;;;;;4.57;2.47;;;16.10;99.90;;;;;;5028150;28;20050;-80
2021/05/28 12:51:36;;;;;;;5.15;2.25;;;16.30;99.90;;;;;;5009411;28;20056;-79
2021/05/28 12:54:25;;;;;;;8.35;2.00;;;16.60;99.90;;;;;;5009302;28;20058;-79
2021/05/28 12:57:37;;;;;;;4.68;2.80;;;16.50;99.90;;;;;;4962733;28;20081;-80
2021/05/28 13:00:28;;;;;;;6.90;2.58;;;16.80;99.90;;;;;;4969618;28;20152;-80
2021/05/28 13:03:50;;;;;;;4.22;2.10;;;16.60;99.90;;;;;;4967162;28;20042;-81